Eagle — WBP2187 — position and weather

sailwx.info

Track history (hours):
 
Tides and Currents Weather Stations Pressure Air Temp Water Temp Dewpoint Dewpoint Depression Visibility Wind Speed Wind Dir Waves Ship Positions

Eagle

Owner: Harley Marine Services, INC, SEATTLE, WA. More information available from US FCC via Universal Licensing System and Coast Guard Vessel Documentation Center.

Last reported at 2014-Oct-25 07:27 UTC. Time now 2014-Oct-25 09:31 UTC.
Position N 48°04' W 122°38'.

Length 32 m; draft 4 m.

Type: Towing. MMSI: 366978690.

Date/timePositionNaut miles runAvg speedWind from/ knotsBaromVisibWave heightAir tempDewpointWater temp
2014-Oct-25 07:27N 48°04' W 122°38'112.2
2014-Oct-25 07:22N 48°03' W 122°38'911.2
2014-Oct-25 06:33N 47°56' W 122°29'111.1
2014-Oct-25 06:27N 47°55' W 122°29'510.9
2014-Oct-25 05:57N 47°50' W 122°27'411.1
2014-Oct-25 05:33N 47°45' W 122°26'1110.9
2014-Oct-25 04:33N 47°34' W 122°26'0 9.6
2014-Oct-25 04:32N 47°34' W 122°26'1110.8
2014-Oct-25 03:34N 47°24' W 122°22'110.7
2014-Oct-25 03:27N 47°23' W 122°22'6 7.2
2014-Oct-25 02:34N 47°17' W 122°25'0 0.1
2014-Oct-24 23:33N 47°16' W 122°24'0 0.0
2014-Oct-24 22:33N 47°16' W 122°24'1 0.1
2014-Oct-24 16:31N 47°16' W 122°24'0 0.0
2014-Oct-24 14:33N 47°16' W 122°24'0 0.0
2014-Oct-24 12:14N 47°16' W 122°24'0 0.1
2014-Oct-24 11:28N 47°16' W 122°24'1 0.8
2014-Oct-24 10:34N 47°16' W 122°23'0 0.0
2014-Oct-24 09:33N 47°16' W 122°23'0 0.0
2014-Oct-24 08:34N 47°16' W 122°23'0 0.0
2014-Oct-24 07:33N 47°16' W 122°23'0 0.0
2014-Oct-24 06:32N 47°16' W 122°23'0 0.0
2014-Oct-24 05:33N 47°16' W 122°23'0 0.0
2014-Oct-24 04:33N 47°16' W 122°23'0 0.0
2014-Oct-24 03:27N 47°16' W 122°23'0 0.0
2014-Oct-24 02:34N 47°16' W 122°23'0 0.0
2014-Oct-24 01:33N 47°16' W 122°23'4 6.0
2014-Oct-24 00:56N 47°18' W 122°27'3 9.3
2014-Oct-24 00:34N 47°21' W 122°25'5 8.5
2014-Oct-24 00:01N 47°26' W 122°23'510.5
2014-Oct-23 23:34N 47°30' W 122°24'210.3
2014-Oct-23 23:21N 47°32' W 122°25'4 4.6
2014-Oct-23 22:34N 47°34' W 122°21'0 0.5
2014-Oct-23 22:31N 47°34' W 122°21'0 0.0
2014-Oct-23 21:33N 47°34' W 122°21'0 0.0
2014-Oct-23 21:31N 47°34' W 122°21'0 0.0
2014-Oct-23 20:33N 47°34' W 122°21'0 0.0
2014-Oct-23 20:31N 47°34' W 122°21'0 0.0
2014-Oct-23 19:33N 47°34' W 122°21'0 0.0
2014-Oct-23 19:31N 47°34' W 122°21'0 0.0
2014-Oct-23 18:34N 47°34' W 122°21'0 0.0
2014-Oct-23 18:31N 47°34' W 122°21'0 0.0
2014-Oct-23 17:34N 47°34' W 122°21'0 0.0
2014-Oct-23 17:31N 47°34' W 122°21'0 0.0
2014-Oct-23 16:33N 47°34' W 122°21'0 0.0
2014-Oct-23 16:31N 47°34' W 122°21'0 0.0
2014-Oct-23 15:33N 47°34' W 122°21'0 0.0
2014-Oct-23 15:31N 47°34' W 122°21'0 0.0
2014-Oct-23 14:33N 47°34' W 122°21'0 0.0
2014-Oct-23 14:30N 47°34' W 122°21'0 0.0
2014-Oct-23 13:34N 47°34' W 122°21'0 0.0
2014-Oct-23 13:30N 47°34' W 122°21'0 0.0
2014-Oct-23 12:33N 47°34' W 122°21'0 0.0
2014-Oct-23 12:30N 47°34' W 122°21'0 0.0
2014-Oct-23 11:33N 47°34' W 122°21'0 0.0
2014-Oct-23 11:30N 47°34' W 122°21'0 0.0
2014-Oct-23 10:34N 47°34' W 122°21'0 0.1
2014-Oct-23 10:30N 47°34' W 122°21'0 0.0
2014-Oct-23 09:33N 47°34' W 122°21'0 0.0
2014-Oct-23 09:30N 47°34' W 122°21'0 0.0
2014-Oct-23 08:33N 47°34' W 122°21'0 0.0
2014-Oct-23 08:30N 47°34' W 122°21'0 0.0
2014-Oct-23 07:34N 47°34' W 122°21'0 0.0
2014-Oct-23 07:30N 47°34' W 122°21'0 0.0
2014-Oct-23 06:34N 47°34' W 122°21'0 0.0
2014-Oct-23 06:30N 47°34' W 122°21'0 0.0
2014-Oct-23 05:55N 47°34' W 122°21'0 0.0
2014-Oct-23 05:33N 47°34' W 122°21'0 0.0
2014-Oct-23 04:33N 47°34' W 122°21'0 0.1
2014-Oct-23 04:29N 47°34' W 122°21'0 0.0
2014-Oct-23 03:33N 47°34' W 122°21'0 0.0
2014-Oct-23 03:29N 47°34' W 122°21'0 0.0
2014-Oct-23 02:32N 47°34' W 122°21'0 0.0
2014-Oct-23 02:29N 47°34' W 122°21'0 0.0
2014-Oct-23 01:33N 47°34' W 122°21'0 0.0
2014-Oct-23 01:29N 47°34' W 122°21'0 0.0
2014-Oct-23 00:33N 47°34' W 122°21'0 0.0
2014-Oct-23 00:29N 47°34' W 122°21'0 0.0
2014-Oct-22 23:33N 47°34' W 122°21'0 0.0
2014-Oct-22 23:28N 47°34' W 122°21'0 0.0
2014-Oct-22 22:34N 47°34' W 122°21'0 0.0
2014-Oct-22 22:33N 47°34' W 122°21'0 0.0
2014-Oct-22 21:34N 47°34' W 122°21'0 0.0
2014-Oct-22 21:33N 47°34' W 122°21'0 0.0
2014-Oct-22 20:33N 47°34' W 122°21'0 0.0
2014-Oct-22 20:33N 47°34' W 122°21'0 0.0
2014-Oct-22 19:34N 47°34' W 122°21'0 0.0
2014-Oct-22 19:33N 47°34' W 122°21'0 0.0
2014-Oct-22 18:34N 47°34' W 122°21'0 0.0
2014-Oct-22 18:33N 47°34' W 122°21'0 0.0
2014-Oct-22 17:33N 47°34' W 122°21'0 0.0
2014-Oct-22 17:33N 47°34' W 122°21'0 0.0
2014-Oct-22 16:33N 47°34' W 122°21'0 0.0
2014-Oct-22 16:22N 47°34' W 122°21'0 0.0
2014-Oct-22 15:33N 47°34' W 122°21'0 0.0
2014-Oct-22 15:33N 47°34' W 122°21'0 0.0
2014-Oct-22 14:33N 47°34' W 122°21'0 0.0
2014-Oct-22 14:33N 47°34' W 122°21'0 0.0
2014-Oct-22 13:33N 47°34' W 122°21'0 0.0
2014-Oct-22 13:32N 47°34' W 122°21'0 0.0
2014-Oct-22 12:33N 47°34' W 122°21'0 0.0
2014-Oct-22 12:32N 47°34' W 122°21'0 0.0
2014-Oct-22 11:33N 47°34' W 122°21'0 0.0
2014-Oct-22 11:32N 47°34' W 122°21'0 0.0
2014-Oct-22 10:33N 47°34' W 122°21'0 0.0
2014-Oct-22 10:32N 47°34' W 122°21'0 0.0
2014-Oct-22 09:33N 47°34' W 122°21'0 0.0
2014-Oct-22 09:32N 47°34' W 122°21'0 0.0
2014-Oct-22 08:33N 47°34' W 122°21'0 0.0
2014-Oct-22 08:32N 47°34' W 122°21'0 0.0
2014-Oct-22 07:33N 47°34' W 122°21'0 0.0
2014-Oct-22 07:32N 47°34' W 122°21'0 0.0
2014-Oct-22 06:33N 47°34' W 122°21'0 0.0
2014-Oct-22 06:32N 47°34' W 122°21'0 0.0
2014-Oct-22 05:57N 47°34' W 122°21'0 0.0
2014-Oct-22 05:33N 47°34' W 122°21'0 0.0
2014-Oct-22 04:34N 47°34' W 122°21'0 0.0
2014-Oct-22 04:31N 47°34' W 122°21'0 0.0
2014-Oct-22 03:33N 47°34' W 122°21'0 0.0
2014-Oct-22 03:31N 47°34' W 122°21'0 0.0
2014-Oct-22 02:32N 47°34' W 122°21'0 0.0
2014-Oct-22 01:33N 47°34' W 122°21'0 0.0
2014-Oct-22 01:29N 47°34' W 122°21'0 0.0
2014-Oct-22 00:33N 47°34' W 122°21'0 0.0
2014-Oct-21 23:52N 47°34' W 122°21'0 0.0
2014-Oct-21 23:33N 47°34' W 122°21'0 0.0
2014-Oct-21 23:33N 47°34' W 122°21'0 0.0
2014-Oct-21 22:34N 47°34' W 122°21'0 0.0
2014-Oct-21 22:32N 47°34' W 122°21'0 0.0
2014-Oct-21 21:33N 47°34' W 122°21'0 0.0
2014-Oct-21 21:31N 47°34' W 122°21'0 0.0
2014-Oct-21 20:34N 47°34' W 122°21'0 0.0
2014-Oct-21 20:31N 47°34' W 122°21'0 0.0
2014-Oct-21 19:34N 47°34' W 122°21'0 0.0
2014-Oct-21 19:31N 47°34' W 122°21'0 0.0
2014-Oct-21 18:33N 47°34' W 122°21'0 0.0
2014-Oct-21 18:31N 47°34' W 122°21'0 0.0
2014-Oct-21 17:33N 47°34' W 122°21'0 0.0
2014-Oct-21 17:31N 47°34' W 122°21'0 0.0
2014-Oct-21 16:33N 47°34' W 122°21'0 0.0
2014-Oct-21 16:31N 47°34' W 122°21'0 0.0
2014-Oct-21 15:33N 47°34' W 122°21'0 0.0
2014-Oct-21 15:31N 47°34' W 122°21'0 0.0
2014-Oct-21 14:33N 47°34' W 122°21'0 0.0
2014-Oct-21 14:31N 47°34' W 122°21'0 0.0
2014-Oct-21 13:33N 47°34' W 122°21'0 0.1
2014-Oct-21 13:31N 47°34' W 122°21'0 0.0
2014-Oct-21 12:33N 47°34' W 122°21'0 0.0
2014-Oct-21 12:30N 47°34' W 122°21'0 0.0
2014-Oct-21 11:33N 47°34' W 122°21'0 0.0
2014-Oct-21 11:30N 47°34' W 122°21'0 0.0
2014-Oct-21 10:34N 47°34' W 122°21'0 0.0
2014-Oct-21 10:30N 47°34' W 122°21'0 0.0
2014-Oct-21 09:33N 47°34' W 122°21'0 0.1
2014-Oct-21 09:30N 47°34' W 122°21'0 0.0
2014-Oct-21 08:33N 47°34' W 122°21'0 0.0
2014-Oct-21 08:30N 47°34' W 122°21'0 0.0
2014-Oct-21 07:34N 47°34' W 122°21'0 0.0
2014-Oct-21 07:30N 47°34' W 122°21'0 0.0
2014-Oct-21 06:33N 47°34' W 122°21'0 0.0
2014-Oct-21 06:30N 47°34' W 122°21'0 0.0
2014-Oct-21 05:50N 47°34' W 122°21'0 0.0
2014-Oct-21 05:33N 47°34' W 122°21'0 0.0
2014-Oct-21 04:33N 47°34' W 122°21'0 0.0
2014-Oct-21 04:30N 47°34' W 122°21'0 0.0
2014-Oct-21 03:34N 47°34' W 122°21'0 0.0
2014-Oct-21 03:30N 47°34' W 122°21'0 0.0
2014-Oct-21 02:33N 47°34' W 122°21'0 0.0
2014-Oct-21 02:29N 47°34' W 122°21'0 0.0
2014-Oct-21 01:33N 47°34' W 122°21'0 0.0
2014-Oct-21 01:30N 47°34' W 122°21'0 0.0
2014-Oct-21 00:33N 47°34' W 122°21'0 0.0
2014-Oct-21 00:30N 47°34' W 122°21'0 0.0
2014-Oct-20 23:33N 47°34' W 122°21'0 0.0
2014-Oct-20 23:29N 47°34' W 122°21'0 0.0
2014-Oct-20 22:34N 47°34' W 122°21'0 0.0
2014-Oct-20 21:33N 47°34' W 122°21'0 0.0
2014-Oct-20 21:05N 47°34' W 122°21'0 0.0
2014-Oct-20 20:33N 47°34' W 122°21'0 0.0
2014-Oct-20 20:13N 47°34' W 122°21'0 0.0
2014-Oct-20 19:33N 47°34' W 122°21'0 0.0
2014-Oct-20 19:29N 47°34' W 122°21'0 0.0
2014-Oct-20 18:34N 47°34' W 122°21'0 0.0
2014-Oct-20 18:29N 47°34' W 122°21'0 0.0
2014-Oct-20 17:33N 47°34' W 122°21'0 0.0
2014-Oct-20 16:33N 47°34' W 122°21'0 0.0
2014-Oct-20 15:33N 47°34' W 122°21'0 0.0
2014-Oct-20 14:33N 47°34' W 122°21'0 0.0
2014-Oct-20 13:33N 47°34' W 122°21'0 0.0
2014-Oct-20 12:34N 47°34' W 122°21'0 0.0
2014-Oct-20 11:33N 47°34' W 122°21'0 0.0
2014-Oct-20 10:33N 47°34' W 122°21'0 0.0
2014-Oct-20 09:33N 47°34' W 122°21'0 0.0
2014-Oct-20 08:33N 47°34' W 122°21'0 0.0
2014-Oct-20 07:34N 47°34' W 122°21'0 0.0
2014-Oct-20 06:43N 47°34' W 122°21'0 0.0
2014-Oct-20 06:28N 47°34' W 122°21'0 0.0
2014-Oct-20 06:28N 47°34' W 122°21'0 0.0
2014-Oct-20 05:58N 47°34' W 122°21'0 0.0
2014-Oct-20 05:33N 47°34' W 122°21'0 0.0
2014-Oct-20 04:33N 47°34' W 122°21'0 0.0
2014-Oct-20 04:33N 47°34' W 122°21'0 0.0
2014-Oct-20 03:34N 47°34' W 122°21'0 0.0
2014-Oct-20 03:33N 47°34' W 122°21'0 0.0
2014-Oct-20 02:33N 47°34' W 122°21'0 0.0
2014-Oct-20 02:33N 47°34' W 122°21'0 0.0
2014-Oct-20 01:34N 47°34' W 122°21'0 0.0
2014-Oct-20 01:33N 47°34' W 122°21'0 0.0
2014-Oct-20 00:33N 47°34' W 122°21'0 0.0
2014-Oct-20 00:33N 47°34' W 122°21'0 0.0
2014-Oct-19 23:33N 47°34' W 122°21'0 0.0
2014-Oct-19 23:33N 47°34' W 122°21'0 0.0
2014-Oct-19 22:34N 47°34' W 122°21'0 0.0
2014-Oct-19 22:33N 47°34' W 122°21'0 0.0
2014-Oct-19 21:34N 47°34' W 122°21'0 0.0
2014-Oct-19 21:33N 47°34' W 122°21'0 0.0
2014-Oct-19 20:33N 47°34' W 122°21'0 0.0
2014-Oct-19 20:32N 47°34' W 122°21'0 0.0
2014-Oct-19 19:33N 47°34' W 122°21'0 0.0
2014-Oct-19 19:30N 47°34' W 122°21'0 0.0
2014-Oct-19 18:33N 47°34' W 122°21'0 0.0
2014-Oct-19 18:28N 47°34' W 122°21'0 0.0
2014-Oct-19 17:33N 47°34' W 122°21'0 0.0
2014-Oct-19 17:18N 47°34' W 122°21'0 0.0
2014-Oct-19 16:33N 47°34' W 122°21'0 0.0
2014-Oct-19 16:31N 47°34' W 122°21'0 0.0
2014-Oct-19 15:33N 47°34' W 122°21'0 0.0
2014-Oct-19 15:31N 47°34' W 122°21'0 0.0
2014-Oct-19 14:34N 47°34' W 122°21'0 0.0
2014-Oct-19 14:31N 47°34' W 122°21'0 0.0
2014-Oct-19 13:33N 47°34' W 122°21'0 0.0
2014-Oct-19 13:31N 47°34' W 122°21'0 0.0
2014-Oct-19 12:34N 47°34' W 122°21'0 0.0
2014-Oct-19 12:31N 47°34' W 122°21'0 0.0
2014-Oct-19 11:34N 47°34' W 122°21'0 0.0
2014-Oct-19 11:30N 47°34' W 122°21'0 0.0
2014-Oct-19 10:34N 47°34' W 122°21'0 0.0
2014-Oct-19 10:31N 47°34' W 122°21'0 0.0
2014-Oct-19 09:34N 47°34' W 122°21'0 0.0
2014-Oct-19 09:31N 47°34' W 122°21'0 0.0
2014-Oct-19 08:33N 47°34' W 122°21'0 0.0
2014-Oct-19 08:31N 47°34' W 122°21'0 0.0
2014-Oct-19 07:34N 47°34' W 122°21'0 0.0
2014-Oct-19 07:31N 47°34' W 122°21'0 0.0
2014-Oct-19 06:33N 47°34' W 122°21'0 0.0
2014-Oct-19 06:30N 47°34' W 122°21'0 0.0
2014-Oct-19 06:00N 47°34' W 122°21'0 0.0
2014-Oct-19 05:33N 47°34' W 122°21'0 0.0
2014-Oct-19 04:33N 47°34' W 122°21'0 0.0
2014-Oct-19 03:55N 47°34' W 122°21'0 0.0
2014-Oct-19 03:34N 47°34' W 122°21'0 0.0
2014-Oct-19 03:25N 47°34' W 122°21'0 0.0
2014-Oct-19 02:33N 47°34' W 122°21'0 0.0
2014-Oct-19 02:30N 47°34' W 122°21'0 0.0
2014-Oct-19 01:33N 47°34' W 122°21'0 0.0
2014-Oct-19 01:30N 47°34' W 122°21'0 0.0
2014-Oct-19 00:33N 47°34' W 122°21'0 0.0
2014-Oct-19 00:29N 47°34' W 122°21'0 0.0
2014-Oct-18 23:33N 47°34' W 122°21'0 0.0
2014-Oct-18 23:30N 47°34' W 122°21'0 0.0
2014-Oct-18 22:34N 47°34' W 122°21'0 0.0
2014-Oct-18 22:30N 47°34' W 122°21'0 0.0
2014-Oct-18 21:33N 47°34' W 122°21'0 0.0
2014-Oct-18 21:29N 47°34' W 122°21'0 0.0
2014-Oct-18 20:33N 47°34' W 122°21'0 0.0
2014-Oct-18 20:29N 47°34' W 122°21'0 0.0
2014-Oct-18 19:34N 47°34' W 122°21'0 0.0
2014-Oct-18 19:29N 47°34' W 122°21'0 0.0
2014-Oct-18 18:31N 47°34' W 122°21'0 0.0
2014-Oct-18 18:28N 47°34' W 122°21'0 0.0
2014-Oct-18 17:33N 47°34' W 122°21'0 0.0
2014-Oct-18 17:28N 47°34' W 122°21'0 0.0
2014-Oct-18 16:33N 47°34' W 122°21'0 0.0
2014-Oct-18 16:28N 47°34' W 122°21'0 0.0
2014-Oct-18 15:33N 47°34' W 122°21'0 0.0
2014-Oct-18 15:29N 47°34' W 122°21'0 0.0
2014-Oct-18 14:33N 47°34' W 122°21'0 0.0
2014-Oct-18 14:29N 47°34' W 122°21'0 0.0
2014-Oct-18 13:33N 47°34' W 122°21'0 0.0
2014-Oct-18 13:33N 47°34' W 122°21'0 0.0
2014-Oct-18 12:34N 47°34' W 122°21'0 1.0
2014-Oct-18 12:33N 47°34' W 122°21'0 0.0
2014-Oct-18 11:34N 47°34' W 122°21'0 0.0
2014-Oct-18 11:33N 47°34' W 122°21'0 0.0
2014-Oct-18 10:34N 47°34' W 122°21'0 0.0
2014-Oct-18 10:22N 47°34' W 122°21'0 0.0
2014-Oct-18 09:33N 47°34' W 122°21'0 0.0
2014-Oct-18 09:33N 47°34' W 122°21'0 0.0
2014-Oct-18 08:33N 47°34' W 122°21'0 0.0
2014-Oct-18 08:32N 47°34' W 122°21'0 0.0
2014-Oct-18 07:33N 47°34' W 122°21'0 0.0
2014-Oct-18 07:32N 47°34' W 122°21'0 0.0
2014-Oct-18 06:34N 47°34' W 122°21'0 0.0
2014-Oct-18 06:32N 47°34' W 122°21'0 0.0
2014-Oct-18 05:57N 47°34' W 122°21'0 0.0
2014-Oct-18 05:33N 47°34' W 122°21'0 0.0
2014-Oct-18 04:33N 47°34' W 122°21'0 0.0
2014-Oct-18 04:32N 47°34' W 122°21'0 0.0
2014-Oct-18 03:33N 47°34' W 122°21'0 0.0
2014-Oct-18 03:32N 47°34' W 122°21'0 0.0
2014-Oct-18 02:33N 47°34' W 122°21'0 0.0
2014-Oct-18 02:32N 47°34' W 122°21'0 0.0
2014-Oct-18 01:33N 47°34' W 122°21'0 0.0
2014-Oct-18 01:32N 47°34' W 122°21'0 0.0
2014-Oct-18 00:33N 47°34' W 122°21'0 0.0
2014-Oct-18 00:32N 47°34' W 122°21'0 0.0
2014-Oct-17 23:33N 47°34' W 122°21'0 0.0
2014-Oct-17 23:32N 47°34' W 122°21'0 0.0
2014-Oct-17 22:34N 47°34' W 122°21'0 0.2
2014-Oct-17 22:32N 47°34' W 122°21'0 0.0
2014-Oct-17 21:34N 47°34' W 122°21'0 0.0
2014-Oct-17 21:31N 47°34' W 122°21'0 0.0
2014-Oct-17 20:33N 47°34' W 122°21'0 0.0
2014-Oct-17 20:31N 47°34' W 122°21'0 0.0
2014-Oct-17 19:34N 47°34' W 122°21'0 0.0
2014-Oct-17 19:31N 47°34' W 122°21'0 0.0
2014-Oct-17 18:33N 47°34' W 122°21'0 0.0
2014-Oct-17 18:31N 47°34' W 122°21'0 0.0
2014-Oct-17 17:33N 47°34' W 122°21'0 0.0
2014-Oct-17 17:31N 47°34' W 122°21'0 0.0
2014-Oct-17 16:34N 47°34' W 122°21'0 0.0
2014-Oct-17 16:31N 47°34' W 122°21'0 0.0
2014-Oct-17 15:33N 47°34' W 122°21'0 0.0
2014-Oct-17 15:31N 47°34' W 122°21'0 0.0
2014-Oct-17 14:33N 47°34' W 122°21'0 0.0
2014-Oct-17 14:31N 47°34' W 122°21'0 0.0
2014-Oct-17 13:33N 47°34' W 122°21'0 0.0
2014-Oct-17 13:30N 47°34' W 122°21'0 0.0
2014-Oct-17 12:33N 47°34' W 122°21'0 0.0
2014-Oct-17 12:25N 47°34' W 122°21'0 0.0
2014-Oct-17 11:33N 47°34' W 122°21'0 0.0
2014-Oct-17 11:30N 47°34' W 122°21'0 0.0
2014-Oct-17 10:34N 47°34' W 122°21'0 0.0
2014-Oct-17 10:30N 47°34' W 122°21'0 0.0
2014-Oct-17 09:33N 47°34' W 122°21'0 0.0
2014-Oct-17 09:30N 47°34' W 122°21'0 0.0
2014-Oct-17 08:33N 47°34' W 122°21'0 0.0
2014-Oct-17 08:29N 47°34' W 122°21'0 0.0
2014-Oct-17 07:31N 47°34' W 122°21'0 0.0
2014-Oct-17 07:02N 47°34' W 122°21'0 0.0
2014-Oct-17 06:33N 47°34' W 122°21'0 0.0
2014-Oct-17 06:32N 47°34' W 122°21'0 0.0
2014-Oct-17 05:33N 47°34' W 122°21'0 0.0
2014-Oct-17 04:33N 47°34' W 122°21'0 0.0
2014-Oct-17 04:29N 47°34' W 122°21'0 0.0
2014-Oct-17 03:33N 47°34' W 122°21'0 0.0
2014-Oct-17 03:29N 47°34' W 122°21'0 0.0
2014-Oct-17 02:33N 47°34' W 122°21'0 0.0
2014-Oct-17 02:29N 47°34' W 122°21'0 0.0
2014-Oct-17 01:33N 47°34' W 122°21'0 0.0
2014-Oct-17 01:29N 47°34' W 122°21'0 0.0
2014-Oct-17 00:33N 47°34' W 122°21'0 0.0
2014-Oct-17 00:29N 47°34' W 122°21'0 0.0
2014-Oct-16 23:33N 47°34' W 122°21'0 0.0
2014-Oct-16 23:29N 47°34' W 122°21'0 0.0
2014-Oct-16 22:33N 47°34' W 122°21'0 0.0
2014-Oct-16 22:29N 47°34' W 122°21'0 0.0
2014-Oct-16 21:33N 47°34' W 122°21'0 0.0
2014-Oct-16 21:33N 47°34' W 122°21'0 0.0
2014-Oct-16 20:34N 47°34' W 122°21'0 0.0
2014-Oct-16 20:33N 47°34' W 122°21'0 0.0
2014-Oct-16 19:29N 47°34' W 122°21'0 0.0
2014-Oct-16 19:13N 47°34' W 122°21'0 0.0
2014-Oct-16 18:33N 47°34' W 122°21'0 0.0
2014-Oct-16 18:33N 47°34' W 122°21'0 0.0
2014-Oct-16 17:33N 47°34' W 122°21'0 0.0
2014-Oct-16 17:33N 47°34' W 122°21'0 0.0
2014-Oct-16 16:33N 47°34' W 122°21'0 0.0
2014-Oct-16 16:33N 47°34' W 122°21'0 0.0
2014-Oct-16 15:32N 47°34' W 122°21'0 0.0
2014-Oct-16 15:32N 47°34' W 122°21'0 0.0
2014-Oct-16 14:34N 47°34' W 122°21'0 0.0
2014-Oct-16 14:33N 47°34' W 122°21'0 0.0
2014-Oct-16 13:33N 47°34' W 122°21'0 0.0
2014-Oct-16 13:33N 47°34' W 122°21'0 0.0
2014-Oct-16 12:33N 47°34' W 122°21'0 0.0
2014-Oct-16 12:33N 47°34' W 122°21'0 0.0
2014-Oct-16 11:30N 47°34' W 122°21'0 0.0
2014-Oct-16 11:27N 47°34' W 122°21'0 0.0
2014-Oct-16 10:33N 47°34' W 122°21'0 0.0
2014-Oct-16 10:32N 47°34' W 122°21'0 0.0
2014-Oct-16 09:33N 47°34' W 122°21'0 0.0
2014-Oct-16 09:32N 47°34' W 122°21'0 0.0
2014-Oct-16 08:32N 47°34' W 122°21'0 0.0
2014-Oct-16 08:32N 47°34' W 122°21'0 0.0
2014-Oct-16 07:33N 47°34' W 122°21'0 0.0
2014-Oct-16 07:32N 47°34' W 122°21'0 0.0
2014-Oct-16 06:34N 47°34' W 122°21'0 0.0
2014-Oct-16 06:32N 47°34' W 122°21'0 0.0
2014-Oct-16 05:57N 47°34' W 122°21'0 0.0
2014-Oct-16 05:33N 47°34' W 122°21'0 0.0
2014-Oct-16 04:33N 47°34' W 122°21'0 0.0
2014-Oct-16 04:32N 47°34' W 122°21'0 0.0
2014-Oct-16 03:33N 47°34' W 122°21'0 0.0
2014-Oct-16 03:31N 47°34' W 122°21'0 0.0
2014-Oct-16 02:33N 47°34' W 122°21'0 0.0
2014-Oct-16 02:31N 47°34' W 122°21'0 0.0
2014-Oct-16 01:32N 47°34' W 122°21'0 0.0
2014-Oct-16 01:27N 47°34' W 122°21'0 0.0
2014-Oct-16 00:33N 47°34' W 122°21'0 0.0
2014-Oct-16 00:26N 47°34' W 122°21'0 0.0
2014-Oct-15 23:34N 47°34' W 122°21'0 0.0
2014-Oct-15 23:31N 47°34' W 122°21'0 0.0
2014-Oct-15 22:33N 47°34' W 122°21'0 0.0
2014-Oct-15 22:31N 47°34' W 122°21'0 0.0
2014-Oct-15 21:33N 47°34' W 122°21'0 0.0
2014-Oct-15 21:31N 47°34' W 122°21'0 0.0
2014-Oct-15 20:33N 47°34' W 122°21'0 0.0
2014-Oct-15 20:31N 47°34' W 122°21'0 0.0
2014-Oct-15 19:33N 47°34' W 122°21'0 0.0
2014-Oct-15 19:31N 47°34' W 122°21'0 0.0
2014-Oct-15 18:33N 47°34' W 122°21'0 0.0
2014-Oct-15 18:31N 47°34' W 122°21'0 0.0
2014-Oct-15 17:34N 47°34' W 122°21'0 0.0
2014-Oct-15 17:31N 47°34' W 122°21'0 0.0
2014-Oct-15 16:34N 47°34' W 122°21'0 0.0
2014-Oct-15 16:26N 47°34' W 122°21'0 0.0
2014-Oct-15 15:33N 47°34' W 122°21'0 0.0
2014-Oct-15 15:30N 47°34' W 122°21'0 0.0
2014-Oct-15 14:33N 47°34' W 122°21'0 0.0
2014-Oct-15 14:30N 47°34' W 122°21'0 0.0
2014-Oct-15 13:34N 47°34' W 122°21'0 0.0
2014-Oct-15 13:30N 47°34' W 122°21'0 0.0
2014-Oct-15 12:33N 47°34' W 122°21'0 0.0
2014-Oct-15 12:30N 47°34' W 122°21'0 0.0
2014-Oct-15 11:33N 47°34' W 122°21'0 0.0
2014-Oct-15 11:30N 47°34' W 122°21'0 0.0
2014-Oct-15 10:34N 47°34' W 122°21'0 0.0
2014-Oct-15 09:34N 47°34' W 122°21'0 0.0
2014-Oct-15 09:32N 47°34' W 122°21'0 0.0
2014-Oct-15 08:33N 47°34' W 122°21'0 0.0
2014-Oct-15 07:59N 47°34' W 122°21'0 0.0
2014-Oct-15 07:33N 47°34' W 122°21'0 0.0
2014-Oct-15 07:29N 47°34' W 122°21'  
Track history (hours):
 
Tides and Currents Weather Stations Pressure Air Temp Water Temp Dewpoint Dewpoint Depression Visibility Wind Speed Wind Dir Waves Ship Positions

Eagle

Owner: Harley Marine Services, INC, SEATTLE, WA. More information available from US FCC via Universal Licensing System and Coast Guard Vessel Documentation Center.

Last reported at 2014-Oct-25 07:27 UTC. Time now 2014-Oct-25 09:31 UTC.
Position N 48°04' W 122°38'.

Length 32 m; draft 4 m.

Type: Towing. MMSI: 366978690.

Date/timePositionNaut miles runAvg speedWind from/ knotsBaromVisibWave heightAir tempDewpointWater temp
2014-Oct-25 07:27N 48°04' W 122°38'112.2
2014-Oct-25 07:22N 48°03' W 122°38'911.2
2014-Oct-25 06:33N 47°56' W 122°29'111.1
2014-Oct-25 06:27N 47°55' W 122°29'510.9
2014-Oct-25 05:57N 47°50' W 122°27'411.1
2014-Oct-25 05:33N 47°45' W 122°26'1110.9
2014-Oct-25 04:33N 47°34' W 122°26'0 9.6
2014-Oct-25 04:32N 47°34' W 122°26'1110.8
2014-Oct-25 03:34N 47°24' W 122°22'110.7
2014-Oct-25 03:27N 47°23' W 122°22'6 7.2
2014-Oct-25 02:34N 47°17' W 122°25'0 0.1
2014-Oct-24 23:33N 47°16' W 122°24'0 0.0
2014-Oct-24 22:33N 47°16' W 122°24'1 0.1
2014-Oct-24 16:31N 47°16' W 122°24'0 0.0
2014-Oct-24 14:33N 47°16' W 122°24'0 0.0
2014-Oct-24 12:14N 47°16' W 122°24'0 0.1
2014-Oct-24 11:28N 47°16' W 122°24'1 0.8
2014-Oct-24 10:34N 47°16' W 122°23'0 0.0
2014-Oct-24 09:33N 47°16' W 122°23'0 0.0
2014-Oct-24 08:34N 47°16' W 122°23'0 0.0
2014-Oct-24 07:33N 47°16' W 122°23'0 0.0
2014-Oct-24 06:32N 47°16' W 122°23'0 0.0
2014-Oct-24 05:33N 47°16' W 122°23'0 0.0
2014-Oct-24 04:33N 47°16' W 122°23'0 0.0
2014-Oct-24 03:27N 47°16' W 122°23'0 0.0
2014-Oct-24 02:34N 47°16' W 122°23'0 0.0
2014-Oct-24 01:33N 47°16' W 122°23'4 6.0
2014-Oct-24 00:56N 47°18' W 122°27'3 9.3
2014-Oct-24 00:34N 47°21' W 122°25'5 8.5
2014-Oct-24 00:01N 47°26' W 122°23'510.5
2014-Oct-23 23:34N 47°30' W 122°24'210.3
2014-Oct-23 23:21N 47°32' W 122°25'4 4.6
2014-Oct-23 22:34N 47°34' W 122°21'0 0.5
2014-Oct-23 22:31N 47°34' W 122°21'0 0.0
2014-Oct-23 21:33N 47°34' W 122°21'0 0.0
2014-Oct-23 21:31N 47°34' W 122°21'0 0.0
2014-Oct-23 20:33N 47°34' W 122°21'0 0.0
2014-Oct-23 20:31N 47°34' W 122°21'0 0.0
2014-Oct-23 19:33N 47°34' W 122°21'0 0.0
2014-Oct-23 19:31N 47°34' W 122°21'0 0.0
2014-Oct-23 18:34N 47°34' W 122°21'0 0.0
2014-Oct-23 18:31N 47°34' W 122°21'0 0.0
2014-Oct-23 17:34N 47°34' W 122°21'0 0.0
2014-Oct-23 17:31N 47°34' W 122°21'0 0.0
2014-Oct-23 16:33N 47°34' W 122°21'0 0.0
2014-Oct-23 16:31N 47°34' W 122°21'0 0.0
2014-Oct-23 15:33N 47°34' W 122°21'0 0.0
2014-Oct-23 15:31N 47°34' W 122°21'0 0.0
2014-Oct-23 14:33N 47°34' W 122°21'0 0.0
2014-Oct-23 14:30N 47°34' W 122°21'0 0.0
2014-Oct-23 13:34N 47°34' W 122°21'0 0.0
2014-Oct-23 13:30N 47°34' W 122°21'0 0.0
2014-Oct-23 12:33N 47°34' W 122°21'0 0.0
2014-Oct-23 12:30N 47°34' W 122°21'0 0.0
2014-Oct-23 11:33N 47°34' W 122°21'0 0.0
2014-Oct-23 11:30N 47°34' W 122°21'0 0.0
2014-Oct-23 10:34N 47°34' W 122°21'0 0.1
2014-Oct-23 10:30N 47°34' W 122°21'0 0.0
2014-Oct-23 09:33N 47°34' W 122°21'0 0.0
2014-Oct-23 09:30N 47°34' W 122°21'0 0.0
2014-Oct-23 08:33N 47°34' W 122°21'0 0.0
2014-Oct-23 08:30N 47°34' W 122°21'0 0.0
2014-Oct-23 07:34N 47°34' W 122°21'0 0.0
2014-Oct-23 07:30N 47°34' W 122°21'0 0.0
2014-Oct-23 06:34N 47°34' W 122°21'0 0.0
2014-Oct-23 06:30N 47°34' W 122°21'0 0.0
2014-Oct-23 05:55N 47°34' W 122°21'0 0.0
2014-Oct-23 05:33N 47°34' W 122°21'0 0.0
2014-Oct-23 04:33N 47°34' W 122°21'0 0.1
2014-Oct-23 04:29N 47°34' W 122°21'0 0.0
2014-Oct-23 03:33N 47°34' W 122°21'0 0.0
2014-Oct-23 03:29N 47°34' W 122°21'0 0.0
2014-Oct-23 02:32N 47°34' W 122°21'0 0.0
2014-Oct-23 02:29N 47°34' W 122°21'0 0.0
2014-Oct-23 01:33N 47°34' W 122°21'0 0.0
2014-Oct-23 01:29N 47°34' W 122°21'0 0.0
2014-Oct-23 00:33N 47°34' W 122°21'0 0.0
2014-Oct-23 00:29N 47°34' W 122°21'0 0.0
2014-Oct-22 23:33N 47°34' W 122°21'0 0.0
2014-Oct-22 23:28N 47°34' W 122°21'0 0.0
2014-Oct-22 22:34N 47°34' W 122°21'0 0.0
2014-Oct-22 22:33N 47°34' W 122°21'0 0.0
2014-Oct-22 21:34N 47°34' W 122°21'0 0.0
2014-Oct-22 21:33N 47°34' W 122°21'0 0.0
2014-Oct-22 20:33N 47°34' W 122°21'0 0.0
2014-Oct-22 20:33N 47°34' W 122°21'0 0.0
2014-Oct-22 19:34N 47°34' W 122°21'0 0.0
2014-Oct-22 19:33N 47°34' W 122°21'0 0.0
2014-Oct-22 18:34N 47°34' W 122°21'0 0.0
2014-Oct-22 18:33N 47°34' W 122°21'0 0.0
2014-Oct-22 17:33N 47°34' W 122°21'0 0.0
2014-Oct-22 17:33N 47°34' W 122°21'0 0.0
2014-Oct-22 16:33N 47°34' W 122°21'0 0.0
2014-Oct-22 16:22N 47°34' W 122°21'0 0.0
2014-Oct-22 15:33N 47°34' W 122°21'0 0.0
2014-Oct-22 15:33N 47°34' W 122°21'0 0.0
2014-Oct-22 14:33N 47°34' W 122°21'0 0.0
2014-Oct-22 14:33N 47°34' W 122°21'0 0.0
2014-Oct-22 13:33N 47°34' W 122°21'0 0.0
2014-Oct-22 13:32N 47°34' W 122°21'0 0.0
2014-Oct-22 12:33N 47°34' W 122°21'0 0.0
2014-Oct-22 12:32N 47°34' W 122°21'0 0.0
2014-Oct-22 11:33N 47°34' W 122°21'0 0.0
2014-Oct-22 11:32N 47°34' W 122°21'0 0.0
2014-Oct-22 10:33N 47°34' W 122°21'0 0.0
2014-Oct-22 10:32N 47°34' W 122°21'0 0.0
2014-Oct-22 09:33N 47°34' W 122°21'0 0.0
2014-Oct-22 09:32N 47°34' W 122°21'0 0.0
2014-Oct-22 08:33N 47°34' W 122°21'0 0.0
2014-Oct-22 08:32N 47°34' W 122°21'0 0.0
2014-Oct-22 07:33N 47°34' W 122°21'0 0.0
2014-Oct-22 07:32N 47°34' W 122°21'0 0.0
2014-Oct-22 06:33N 47°34' W 122°21'0 0.0
2014-Oct-22 06:32N 47°34' W 122°21'0 0.0
2014-Oct-22 05:57N 47°34' W 122°21'0 0.0
2014-Oct-22 05:33N 47°34' W 122°21'0 0.0
2014-Oct-22 04:34N 47°34' W 122°21'0 0.0
2014-Oct-22 04:31N 47°34' W 122°21'0 0.0
2014-Oct-22 03:33N 47°34' W 122°21'0 0.0
2014-Oct-22 03:31N 47°34' W 122°21'0 0.0
2014-Oct-22 02:32N 47°34' W 122°21'0 0.0
2014-Oct-22 01:33N 47°34' W 122°21'0 0.0
2014-Oct-22 01:29N 47°34' W 122°21'0 0.0
2014-Oct-22 00:33N 47°34' W 122°21'0 0.0
2014-Oct-21 23:52N 47°34' W 122°21'0 0.0
2014-Oct-21 23:33N 47°34' W 122°21'0 0.0
2014-Oct-21 23:33N 47°34' W 122°21'0 0.0
2014-Oct-21 22:34N 47°34' W 122°21'0 0.0
2014-Oct-21 22:32N 47°34' W 122°21'0 0.0
2014-Oct-21 21:33N 47°34' W 122°21'0 0.0
2014-Oct-21 21:31N 47°34' W 122°21'0 0.0
2014-Oct-21 20:34N 47°34' W 122°21'0 0.0
2014-Oct-21 20:31N 47°34' W 122°21'0 0.0
2014-Oct-21 19:34N 47°34' W 122°21'0 0.0
2014-Oct-21 19:31N 47°34' W 122°21'0 0.0
2014-Oct-21 18:33N 47°34' W 122°21'0 0.0
2014-Oct-21 18:31N 47°34' W 122°21'0 0.0
2014-Oct-21 17:33N 47°34' W 122°21'0 0.0
2014-Oct-21 17:31N 47°34' W 122°21'0 0.0
2014-Oct-21 16:33N 47°34' W 122°21'0 0.0
2014-Oct-21 16:31N 47°34' W 122°21'0 0.0
2014-Oct-21 15:33N 47°34' W 122°21'0 0.0
2014-Oct-21 15:31N 47°34' W 122°21'0 0.0
2014-Oct-21 14:33N 47°34' W 122°21'0 0.0
2014-Oct-21 14:31N 47°34' W 122°21'0 0.0
2014-Oct-21 13:33N 47°34' W 122°21'0 0.1
2014-Oct-21 13:31N 47°34' W 122°21'0 0.0
2014-Oct-21 12:33N 47°34' W 122°21'0 0.0
2014-Oct-21 12:30N 47°34' W 122°21'0 0.0
2014-Oct-21 11:33N 47°34' W 122°21'0 0.0
2014-Oct-21 11:30N 47°34' W 122°21'0 0.0
2014-Oct-21 10:34N 47°34' W 122°21'0 0.0
2014-Oct-21 10:30N 47°34' W 122°21'0 0.0
2014-Oct-21 09:33N 47°34' W 122°21'0 0.1
2014-Oct-21 09:30N 47°34' W 122°21'0 0.0
2014-Oct-21 08:33N 47°34' W 122°21'0 0.0
2014-Oct-21 08:30N 47°34' W 122°21'0 0.0
2014-Oct-21 07:34N 47°34' W 122°21'0 0.0
2014-Oct-21 07:30N 47°34' W 122°21'0 0.0
2014-Oct-21 06:33N 47°34' W 122°21'0 0.0
2014-Oct-21 06:30N 47°34' W 122°21'0 0.0
2014-Oct-21 05:50N 47°34' W 122°21'0 0.0
2014-Oct-21 05:33N 47°34' W 122°21'0 0.0
2014-Oct-21 04:33N 47°34' W 122°21'0 0.0
2014-Oct-21 04:30N 47°34' W 122°21'0 0.0
2014-Oct-21 03:34N 47°34' W 122°21'0 0.0
2014-Oct-21 03:30N 47°34' W 122°21'0 0.0
2014-Oct-21 02:33N 47°34' W 122°21'0 0.0
2014-Oct-21 02:29N 47°34' W 122°21'0 0.0
2014-Oct-21 01:33N 47°34' W 122°21'0 0.0
2014-Oct-21 01:30N 47°34' W 122°21'0 0.0
2014-Oct-21 00:33N 47°34' W 122°21'0 0.0
2014-Oct-21 00:30N 47°34' W 122°21'0 0.0
2014-Oct-20 23:33N 47°34' W 122°21'0 0.0
2014-Oct-20 23:29N 47°34' W 122°21'0 0.0
2014-Oct-20 22:34N 47°34' W 122°21'0 0.0
2014-Oct-20 21:33N 47°34' W 122°21'0 0.0
2014-Oct-20 21:05N 47°34' W 122°21'0 0.0
2014-Oct-20 20:33N 47°34' W 122°21'0 0.0
2014-Oct-20 20:13N 47°34' W 122°21'0 0.0
2014-Oct-20 19:33N 47°34' W 122°21'0 0.0
2014-Oct-20 19:29N 47°34' W 122°21'0 0.0
2014-Oct-20 18:34N 47°34' W 122°21'0 0.0
2014-Oct-20 18:29N 47°34' W 122°21'0 0.0
2014-Oct-20 17:33N 47°34' W 122°21'0 0.0
2014-Oct-20 16:33N 47°34' W 122°21'0 0.0
2014-Oct-20 15:33N 47°34' W 122°21'0 0.0
2014-Oct-20 14:33N 47°34' W 122°21'0 0.0
2014-Oct-20 13:33N 47°34' W 122°21'0 0.0
2014-Oct-20 12:34N 47°34' W 122°21'0 0.0
2014-Oct-20 11:33N 47°34' W 122°21'0 0.0
2014-Oct-20 10:33N 47°34' W 122°21'0 0.0
2014-Oct-20 09:33N 47°34' W 122°21'0 0.0
2014-Oct-20 08:33N 47°34' W 122°21'0 0.0
2014-Oct-20 07:34N 47°34' W 122°21'0 0.0
2014-Oct-20 06:43N 47°34' W 122°21'0 0.0
2014-Oct-20 06:28N 47°34' W 122°21'0 0.0
2014-Oct-20 06:28N 47°34' W 122°21'0 0.0
2014-Oct-20 05:58N 47°34' W 122°21'0 0.0
2014-Oct-20 05:33N 47°34' W 122°21'0 0.0
2014-Oct-20 04:33N 47°34' W 122°21'0 0.0
2014-Oct-20 04:33N 47°34' W 122°21'0 0.0
2014-Oct-20 03:34N 47°34' W 122°21'0 0.0
2014-Oct-20 03:33N 47°34' W 122°21'0 0.0
2014-Oct-20 02:33N 47°34' W 122°21'0 0.0
2014-Oct-20 02:33N 47°34' W 122°21'0 0.0
2014-Oct-20 01:34N 47°34' W 122°21'0 0.0
2014-Oct-20 01:33N 47°34' W 122°21'0 0.0
2014-Oct-20 00:33N 47°34' W 122°21'0 0.0
2014-Oct-20 00:33N 47°34' W 122°21'0 0.0
2014-Oct-19 23:33N 47°34' W 122°21'0 0.0
2014-Oct-19 23:33N 47°34' W 122°21'0 0.0
2014-Oct-19 22:34N 47°34' W 122°21'0 0.0
2014-Oct-19 22:33N 47°34' W 122°21'0 0.0
2014-Oct-19 21:34N 47°34' W 122°21'0 0.0
2014-Oct-19 21:33N 47°34' W 122°21'0 0.0
2014-Oct-19 20:33N 47°34' W 122°21'0 0.0
2014-Oct-19 20:32N 47°34' W 122°21'0 0.0
2014-Oct-19 19:33N 47°34' W 122°21'0 0.0
2014-Oct-19 19:30N 47°34' W 122°21'0 0.0
2014-Oct-19 18:33N 47°34' W 122°21'0 0.0
2014-Oct-19 18:28N 47°34' W 122°21'0 0.0
2014-Oct-19 17:33N 47°34' W 122°21'0 0.0
2014-Oct-19 17:18N 47°34' W 122°21'0 0.0
2014-Oct-19 16:33N 47°34' W 122°21'0 0.0
2014-Oct-19 16:31N 47°34' W 122°21'0 0.0
2014-Oct-19 15:33N 47°34' W 122°21'0 0.0
2014-Oct-19 15:31N 47°34' W 122°21'0 0.0
2014-Oct-19 14:34N 47°34' W 122°21'0 0.0
2014-Oct-19 14:31N 47°34' W 122°21'0 0.0
2014-Oct-19 13:33N 47°34' W 122°21'0 0.0
2014-Oct-19 13:31N 47°34' W 122°21'0 0.0
2014-Oct-19 12:34N 47°34' W 122°21'0 0.0
2014-Oct-19 12:31N 47°34' W 122°21'0 0.0
2014-Oct-19 11:34N 47°34' W 122°21'0 0.0
2014-Oct-19 11:30N 47°34' W 122°21'0 0.0
2014-Oct-19 10:34N 47°34' W 122°21'0 0.0
2014-Oct-19 10:31N 47°34' W 122°21'0 0.0
2014-Oct-19 09:34N 47°34' W 122°21'0 0.0
2014-Oct-19 09:31N 47°34' W 122°21'0 0.0
2014-Oct-19 08:33N 47°34' W 122°21'0 0.0
2014-Oct-19 08:31N 47°34' W 122°21'0 0.0
2014-Oct-19 07:34N 47°34' W 122°21'0 0.0
2014-Oct-19 07:31N 47°34' W 122°21'0 0.0
2014-Oct-19 06:33N 47°34' W 122°21'0 0.0
2014-Oct-19 06:30N 47°34' W 122°21'0 0.0
2014-Oct-19 06:00N 47°34' W 122°21'0 0.0
2014-Oct-19 05:33N 47°34' W 122°21'0 0.0
2014-Oct-19 04:33N 47°34' W 122°21'0 0.0
2014-Oct-19 03:55N 47°34' W 122°21'0 0.0
2014-Oct-19 03:34N 47°34' W 122°21'0 0.0
2014-Oct-19 03:25N 47°34' W 122°21'0 0.0
2014-Oct-19 02:33N 47°34' W 122°21'0 0.0
2014-Oct-19 02:30N 47°34' W 122°21'0 0.0
2014-Oct-19 01:33N 47°34' W 122°21'0 0.0
2014-Oct-19 01:30N 47°34' W 122°21'0 0.0
2014-Oct-19 00:33N 47°34' W 122°21'0 0.0
2014-Oct-19 00:29N 47°34' W 122°21'0 0.0
2014-Oct-18 23:33N 47°34' W 122°21'0 0.0
2014-Oct-18 23:30N 47°34' W 122°21'0 0.0
2014-Oct-18 22:34N 47°34' W 122°21'0 0.0
2014-Oct-18 22:30N 47°34' W 122°21'0 0.0
2014-Oct-18 21:33N 47°34' W 122°21'0 0.0
2014-Oct-18 21:29N 47°34' W 122°21'0 0.0
2014-Oct-18 20:33N 47°34' W 122°21'0 0.0
2014-Oct-18 20:29N 47°34' W 122°21'0 0.0
2014-Oct-18 19:34N 47°34' W 122°21'0 0.0
2014-Oct-18 19:29N 47°34' W 122°21'0 0.0
2014-Oct-18 18:31N 47°34' W 122°21'0 0.0
2014-Oct-18 18:28N 47°34' W 122°21'0 0.0
2014-Oct-18 17:33N 47°34' W 122°21'0 0.0
2014-Oct-18 17:28N 47°34' W 122°21'0 0.0
2014-Oct-18 16:33N 47°34' W 122°21'0 0.0
2014-Oct-18 16:28N 47°34' W 122°21'0 0.0
2014-Oct-18 15:33N 47°34' W 122°21'0 0.0
2014-Oct-18 15:29N 47°34' W 122°21'0 0.0
2014-Oct-18 14:33N 47°34' W 122°21'0 0.0
2014-Oct-18 14:29N 47°34' W 122°21'0 0.0
2014-Oct-18 13:33N 47°34' W 122°21'0 0.0
2014-Oct-18 13:33N 47°34' W 122°21'0 0.0
2014-Oct-18 12:34N 47°34' W 122°21'0 1.0
2014-Oct-18 12:33N 47°34' W 122°21'0 0.0
2014-Oct-18 11:34N 47°34' W 122°21'0 0.0
2014-Oct-18 11:33N 47°34' W 122°21'0 0.0
2014-Oct-18 10:34N 47°34' W 122°21'0 0.0
2014-Oct-18 10:22N 47°34' W 122°21'0 0.0
2014-Oct-18 09:33N 47°34' W 122°21'0 0.0
2014-Oct-18 09:33N 47°34' W 122°21'0 0.0
2014-Oct-18 08:33N 47°34' W 122°21'0 0.0
2014-Oct-18 08:32N 47°34' W 122°21'0 0.0
2014-Oct-18 07:33N 47°34' W 122°21'0 0.0
2014-Oct-18 07:32N 47°34' W 122°21'0 0.0
2014-Oct-18 06:34N 47°34' W 122°21'0 0.0
2014-Oct-18 06:32N 47°34' W 122°21'0 0.0
2014-Oct-18 05:57N 47°34' W 122°21'0 0.0
2014-Oct-18 05:33N 47°34' W 122°21'0 0.0
2014-Oct-18 04:33N 47°34' W 122°21'0 0.0
2014-Oct-18 04:32N 47°34' W 122°21'0 0.0
2014-Oct-18 03:33N 47°34' W 122°21'0 0.0
2014-Oct-18 03:32N 47°34' W 122°21'0 0.0
2014-Oct-18 02:33N 47°34' W 122°21'0 0.0
2014-Oct-18 02:32N 47°34' W 122°21'0 0.0
2014-Oct-18 01:33N 47°34' W 122°21'0 0.0
2014-Oct-18 01:32N 47°34' W 122°21'0 0.0
2014-Oct-18 00:33N 47°34' W 122°21'0 0.0
2014-Oct-18 00:32N 47°34' W 122°21'0 0.0
2014-Oct-17 23:33N 47°34' W 122°21'0 0.0
2014-Oct-17 23:32N 47°34' W 122°21'0 0.0
2014-Oct-17 22:34N 47°34' W 122°21'0 0.2
2014-Oct-17 22:32N 47°34' W 122°21'0 0.0
2014-Oct-17 21:34N 47°34' W 122°21'0 0.0
2014-Oct-17 21:31N 47°34' W 122°21'0 0.0
2014-Oct-17 20:33N 47°34' W 122°21'0 0.0
2014-Oct-17 20:31N 47°34' W 122°21'0 0.0
2014-Oct-17 19:34N 47°34' W 122°21'0 0.0
2014-Oct-17 19:31N 47°34' W 122°21'0 0.0
2014-Oct-17 18:33N 47°34' W 122°21'0 0.0
2014-Oct-17 18:31N 47°34' W 122°21'0 0.0
2014-Oct-17 17:33N 47°34' W 122°21'0 0.0
2014-Oct-17 17:31N 47°34' W 122°21'0 0.0
2014-Oct-17 16:34N 47°34' W 122°21'0 0.0
2014-Oct-17 16:31N 47°34' W 122°21'0 0.0
2014-Oct-17 15:33N 47°34' W 122°21'0 0.0
2014-Oct-17 15:31N 47°34' W 122°21'0 0.0
2014-Oct-17 14:33N 47°34' W 122°21'0 0.0
2014-Oct-17 14:31N 47°34' W 122°21'0 0.0
2014-Oct-17 13:33N 47°34' W 122°21'0 0.0
2014-Oct-17 13:30N 47°34' W 122°21'0 0.0
2014-Oct-17 12:33N 47°34' W 122°21'0 0.0
2014-Oct-17 12:25N 47°34' W 122°21'0 0.0
2014-Oct-17 11:33N 47°34' W 122°21'0 0.0
2014-Oct-17 11:30N 47°34' W 122°21'0 0.0
2014-Oct-17 10:34N 47°34' W 122°21'0 0.0
2014-Oct-17 10:30N 47°34' W 122°21'0 0.0
2014-Oct-17 09:33N 47°34' W 122°21'0 0.0
2014-Oct-17 09:30N 47°34' W 122°21'0 0.0
2014-Oct-17 08:33N 47°34' W 122°21'0 0.0
2014-Oct-17 08:29N 47°34' W 122°21'0 0.0
2014-Oct-17 07:31N 47°34' W 122°21'0 0.0
2014-Oct-17 07:02N 47°34' W 122°21'0 0.0
2014-Oct-17 06:33N 47°34' W 122°21'0 0.0
2014-Oct-17 06:32N 47°34' W 122°21'0 0.0
2014-Oct-17 05:33N 47°34' W 122°21'0 0.0
2014-Oct-17 04:33N 47°34' W 122°21'0 0.0
2014-Oct-17 04:29N 47°34' W 122°21'0 0.0
2014-Oct-17 03:33N 47°34' W 122°21'0 0.0
2014-Oct-17 03:29N 47°34' W 122°21'0 0.0
2014-Oct-17 02:33N 47°34' W 122°21'0 0.0
2014-Oct-17 02:29N 47°34' W 122°21'0 0.0
2014-Oct-17 01:33N 47°34' W 122°21'0 0.0
2014-Oct-17 01:29N 47°34' W 122°21'0 0.0
2014-Oct-17 00:33N 47°34' W 122°21'0 0.0
2014-Oct-17 00:29N 47°34' W 122°21'0 0.0
2014-Oct-16 23:33N 47°34' W 122°21'0 0.0
2014-Oct-16 23:29N 47°34' W 122°21'0 0.0
2014-Oct-16 22:33N 47°34' W 122°21'0 0.0
2014-Oct-16 22:29N 47°34' W 122°21'0 0.0
2014-Oct-16 21:33N 47°34' W 122°21'0 0.0
2014-Oct-16 21:33N 47°34' W 122°21'0 0.0
2014-Oct-16 20:34N 47°34' W 122°21'0 0.0
2014-Oct-16 20:33N 47°34' W 122°21'0 0.0
2014-Oct-16 19:29N 47°34' W 122°21'0 0.0
2014-Oct-16 19:13N 47°34' W 122°21'0 0.0
2014-Oct-16 18:33N 47°34' W 122°21'0 0.0
2014-Oct-16 18:33N 47°34' W 122°21'0 0.0
2014-Oct-16 17:33N 47°34' W 122°21'0 0.0
2014-Oct-16 17:33N 47°34' W 122°21'0 0.0
2014-Oct-16 16:33N 47°34' W 122°21'0 0.0
2014-Oct-16 16:33N 47°34' W 122°21'0 0.0
2014-Oct-16 15:32N 47°34' W 122°21'0 0.0
2014-Oct-16 15:32N 47°34' W 122°21'0 0.0
2014-Oct-16 14:34N 47°34' W 122°21'0 0.0
2014-Oct-16 14:33N 47°34' W 122°21'0 0.0
2014-Oct-16 13:33N 47°34' W 122°21'0 0.0
2014-Oct-16 13:33N 47°34' W 122°21'0 0.0
2014-Oct-16 12:33N 47°34' W 122°21'0 0.0
2014-Oct-16 12:33N 47°34' W 122°21'0 0.0
2014-Oct-16 11:30N 47°34' W 122°21'0 0.0
2014-Oct-16 11:27N 47°34' W 122°21'0 0.0
2014-Oct-16 10:33N 47°34' W 122°21'0 0.0
2014-Oct-16 10:32N 47°34' W 122°21'0 0.0
2014-Oct-16 09:33N 47°34' W 122°21'0 0.0
2014-Oct-16 09:32N 47°34' W 122°21'0 0.0
2014-Oct-16 08:32N 47°34' W 122°21'0 0.0
2014-Oct-16 08:32N 47°34' W 122°21'0 0.0
2014-Oct-16 07:33N 47°34' W 122°21'0 0.0
2014-Oct-16 07:32N 47°34' W 122°21'0 0.0
2014-Oct-16 06:34N 47°34' W 122°21'0 0.0
2014-Oct-16 06:32N 47°34' W 122°21'0 0.0
2014-Oct-16 05:57N 47°34' W 122°21'0 0.0
2014-Oct-16 05:33N 47°34' W 122°21'0 0.0
2014-Oct-16 04:33N 47°34' W 122°21'0 0.0
2014-Oct-16 04:32N 47°34' W 122°21'0 0.0
2014-Oct-16 03:33N 47°34' W 122°21'0 0.0
2014-Oct-16 03:31N 47°34' W 122°21'0 0.0
2014-Oct-16 02:33N 47°34' W 122°21'0 0.0
2014-Oct-16 02:31N 47°34' W 122°21'0 0.0
2014-Oct-16 01:32N 47°34' W 122°21'0 0.0
2014-Oct-16 01:27N 47°34' W 122°21'0 0.0
2014-Oct-16 00:33N 47°34' W 122°21'0 0.0
2014-Oct-16 00:26N 47°34' W 122°21'0 0.0
2014-Oct-15 23:34N 47°34' W 122°21'0 0.0
2014-Oct-15 23:31N 47°34' W 122°21'0 0.0
2014-Oct-15 22:33N 47°34' W 122°21'0 0.0
2014-Oct-15 22:31N 47°34' W 122°21'0 0.0
2014-Oct-15 21:33N 47°34' W 122°21'0 0.0
2014-Oct-15 21:31N 47°34' W 122°21'0 0.0
2014-Oct-15 20:33N 47°34' W 122°21'0 0.0
2014-Oct-15 20:31N 47°34' W 122°21'0 0.0
2014-Oct-15 19:33N 47°34' W 122°21'0 0.0
2014-Oct-15 19:31N 47°34' W 122°21'0 0.0
2014-Oct-15 18:33N 47°34' W 122°21'0 0.0
2014-Oct-15 18:31N 47°34' W 122°21'0 0.0
2014-Oct-15 17:34N 47°34' W 122°21'0 0.0
2014-Oct-15 17:31N 47°34' W 122°21'0 0.0
2014-Oct-15 16:34N 47°34' W 122°21'0 0.0
2014-Oct-15 16:26N 47°34' W 122°21'0 0.0
2014-Oct-15 15:33N 47°34' W 122°21'0 0.0
2014-Oct-15 15:30N 47°34' W 122°21'0 0.0
2014-Oct-15 14:33N 47°34' W 122°21'0 0.0
2014-Oct-15 14:30N 47°34' W 122°21'0 0.0
2014-Oct-15 13:34N 47°34' W 122°21'0 0.0
2014-Oct-15 13:30N 47°34' W 122°21'0 0.0
2014-Oct-15 12:33N 47°34' W 122°21'0 0.0
2014-Oct-15 12:30N 47°34' W 122°21'0 0.0
2014-Oct-15 11:33N 47°34' W 122°21'0 0.0
2014-Oct-15 11:30N 47°34' W 122°21'0 0.0
2014-Oct-15 10:34N 47°34' W 122°21'0 0.0
2014-Oct-15 09:34N 47°34' W 122°21'0 0.0
2014-Oct-15 09:32N 47°34' W 122°21'0 0.0
2014-Oct-15 08:33N 47°34' W 122°21'0 0.0
2014-Oct-15 07:59N 47°34' W 122°21'0 0.0
2014-Oct-15 07:33N 47°34' W 122°21'0 0.0
2014-Oct-15 07:29N 47°34' W 122°21'  

Dump ship's entire track history